Time;durP1;ratioP1;P1;durP2;ratioP2;P2;SDS_P1;SDS_P2;PMS_P1;PMS_P2;Temp;Humidity;BMP_temperature;BMP_pressure;BME280_temperature;BME280_humidity;BME280_pressure;Samples;Min_cycle;Max_cycle;Signal;HPM_P1;HPM_P2
2022/08/14 00:02:23;;;;;;;4.80;2.78;;;24.50;72.80;;;;;;5093016;28;20020;-72
2022/08/14 00:04:49;;;;;;;9.30;2.90;;;24.10;74.40;;;;;;5091496;28;20152;-68
2022/08/14 00:07:15;;;;;;;13.15;3.20;;;24.60;73.90;;;;;;5092941;28;20486;-69
2022/08/14 00:09:45;;;;;;;6.57;2.97;;;24.50;73.50;;;;;;5093280;28;20024;-70
2022/08/14 00:12:11;;;;;;;8.68;2.80;;;24.20;74.10;;;;;;5091290;28;20498;-70
2022/08/14 00:14:38;;;;;;;9.27;3.00;;;24.30;73.50;;;;;;5092823;28;20028;-71
2022/08/14 00:17:04;;;;;;;8.25;2.72;;;24.40;71.80;;;;;;5091337;28;20024;-71
2022/08/14 00:19:30;;;;;;;4.15;2.55;;;24.40;72.70;;;;;;5091134;28;20168;-69
2022/08/14 00:21:56;;;;;;;6.00;2.80;;;24.40;72.90;;;;;;5092157;28;20020;-68
2022/08/14 00:24:22;;;;;;;6.15;3.00;;;24.60;72.50;;;;;;5094780;28;20240;-67
2022/08/14 00:26:48;;;;;;;12.07;2.90;;;24.70;72.20;;;;;;5093520;28;20039;-69
2022/08/14 00:29:14;;;;;;;5.10;2.60;;;24.70;71.40;;;;;;5090981;28;20024;-68
2022/08/14 00:31:40;;;;;;;9.75;2.55;;;24.70;70.90;;;;;;5090714;28;20082;-69
2022/08/14 00:34:06;;;;;;;3.85;2.58;;;24.40;72.80;;;;;;5093263;28;20016;-68
2022/08/14 00:36:31;;;;;;;7.13;2.70;;;24.30;73.80;;;;;;5090309;28;20106;-67
2022/08/14 00:38:57;;;;;;;6.72;2.70;;;24.50;73.70;;;;;;5091552;28;20375;-68
2022/08/14 00:41:30;;;;;;;3.60;2.47;;;24.40;73.40;;;;;;5092919;28;20024;-67
2022/08/14 00:43:55;;;;;;;9.43;3.15;;;24.60;73.60;;;;;;5082999;28;20043;-70
2022/08/14 00:46:21;;;;;;;8.20;3.03;;;24.40;73.10;;;;;;5092808;28;20020;-67
2022/08/14 00:48:47;;;;;;;7.22;3.10;;;24.60;73.50;;;;;;5092639;28;20032;-69
2022/08/14 00:51:14;;;;;;;6.50;2.78;;;24.80;72.90;;;;;;5093034;28;20111;-68
2022/08/14 00:53:41;;;;;;;4.95;2.55;;;24.90;72.60;;;;;;5092637;28;20047;-68
2022/08/14 00:56:08;;;;;;;6.18;2.83;;;24.80;72.40;;;;;;5092126;28;20012;-68
2022/08/14 00:58:35;;;;;;;12.13;2.90;;;24.40;74.10;;;;;;5090538;28;20044;-68
2022/08/14 01:01:08;;;;;;;5.82;2.67;;;24.60;73.70;;;;;;5092605;28;20076;-69
2022/08/14 01:03:38;;;;;;;6.30;2.78;;;24.60;72.80;;;;;;5092438;28;20031;-68
2022/08/14 01:06:07;;;;;;;8.30;3.17;;;24.60;73.10;;;;;;5092129;28;20357;-69
2022/08/14 01:08:34;;;;;;;3.47;2.47;;;24.40;74.40;;;;;;5092538;28;20031;-68
2022/08/14 01:11:01;;;;;;;10.52;3.08;;;24.20;75.20;;;;;;5094504;28;20521;-68
2022/08/14 01:13:32;;;;;;;12.70;3.92;;;23.90;77.20;;;;;;5094976;28;20016;-67
2022/08/14 01:15:59;;;;;;;;;;;24.10;77.30;;;;;;5096497;28;20028;-69
2022/08/14 01:21:14;;;;;;;8.77;3.15;;;23.80;79.90;;;;;;5096330;28;20024;-68
2022/08/14 01:23:47;;;;;;;7.93;3.38;;;23.60;81.60;;;;;;5094648;28;20035;-68
2022/08/14 01:26:14;;;;;;;6.95;3.13;;;23.70;82.00;;;;;;5094810;28;20111;-70
2022/08/14 01:28:41;;;;;;;4.47;3.15;;;23.90;81.70;;;;;;5095198;28;20035;-69
2022/08/14 01:31:14;;;;;;;8.00;3.20;;;24.10;80.30;;;;;;5096443;28;20032;-72
2022/08/14 01:33:46;;;;;;;5.15;3.05;;;24.00;81.80;;;;;;5095597;28;20458;-68
2022/08/14 01:36:19;;;;;;;4.85;3.33;;;24.00;81.50;;;;;;5096198;28;20063;-72
2022/08/14 01:38:47;;;;;;;15.55;3.95;;;24.00;81.10;;;;;;5095341;28;20387;-67
2022/08/14 01:41:16;;;;;;;6.75;3.45;;;24.10;81.60;;;;;;5095299;28;20020;-68
2022/08/14 01:44:00;;;;;;;7.57;3.58;;;23.90;82.80;;;;;;5095284;28;20028;-71
2022/08/14 01:46:36;;;;;;;10.60;3.30;;;24.10;81.30;;;;;;5094259;28;20032;-69
2022/08/14 01:49:06;;;;;;;10.13;3.70;;;24.00;80.90;;;;;;5094647;28;20024;-71
2022/08/14 01:51:33;;;;;;;4.10;3.13;;;23.80;82.00;;;;;;5094563;28;20028;-70
2022/08/14 01:54:04;;;;;;;3.55;2.67;;;23.80;82.50;;;;;;5094235;28;20123;-67
2022/08/14 01:56:36;;;;;;;5.53;3.20;;;23.40;83.60;;;;;;5094658;28;20135;-69
2022/08/14 01:59:04;;;;;;;5.50;3.38;;;23.30;85.80;;;;;;5095058;28;20036;-69
2022/08/14 02:01:32;;;;;;;3.97;3.53;;;23.30;86.40;;;;;;5095660;28;20408;-67
2022/08/14 02:03:58;;;;;;;12.63;3.40;;;23.50;86.70;;;;;;5095605;28;20386;-70
2022/08/14 02:06:25;;;;;;;11.80;4.13;;;23.50;86.50;;;;;;5095129;28;20032;-68
2022/08/14 02:08:52;;;;;;;7.40;4.03;;;23.30;86.60;;;;;;5094923;28;20111;-70
2022/08/14 02:11:21;;;;;;;9.95;4.35;;;23.40;86.80;;;;;;5093725;28;20465;-70
2022/08/14 02:13:58;;;;;;;11.50;4.22;;;23.30;87.00;;;;;;5094136;28;20390;-68
2022/08/14 02:16:28;;;;;;;8.73;4.32;;;23.40;86.20;;;;;;5094808;28;20111;-70
2022/08/14 02:18:59;;;;;;;9.02;4.68;;;23.10;87.90;;;;;;5095318;28;20093;-70
2022/08/14 02:21:27;;;;;;;13.18;4.60;;;23.10;88.70;;;;;;5094875;28;20028;-67
2022/08/14 02:23:54;;;;;;;9.60;4.55;;;23.00;89.50;;;;;;5094487;28;20078;-70
2022/08/14 02:26:26;;;;;;;8.60;4.47;;;23.00;89.70;;;;;;5093630;28;20020;-70
2022/08/14 02:28:55;;;;;;;16.13;4.15;;;23.00;89.90;;;;;;5094540;28;20036;-69
2022/08/14 02:31:21;;;;;;;8.27;4.43;;;23.00;90.10;;;;;;5094270;28;20081;-72
2022/08/14 02:33:48;;;;;;;6.13;3.60;;;23.10;90.20;;;;;;5094343;28;20094;-70
2022/08/14 02:36:15;;;;;;;6.55;3.90;;;23.20;89.20;;;;;;5094386;28;20024;-69
2022/08/14 02:38:41;;;;;;;7.75;4.07;;;23.20;88.70;;;;;;5093758;28;20547;-68
2022/08/14 02:41:09;;;;;;;8.95;4.40;;;23.20;88.90;;;;;;5093446;28;20028;-72
2022/08/14 02:43:37;;;;;;;10.95;3.90;;;23.10;89.50;;;;;;5093274;28;20035;-68
2022/08/14 02:46:08;;;;;;;10.68;4.22;;;22.90;90.40;;;;;;5094568;28;20047;-67
2022/08/14 02:48:35;;;;;;;12.48;4.40;;;22.90;90.60;;;;;;5094437;28;20052;-70
2022/08/14 02:51:03;;;;;;;9.80;4.07;;;22.90;90.60;;;;;;5094055;28;20032;-69
2022/08/14 02:53:30;;;;;;;8.90;4.63;;;22.90;90.70;;;;;;5092888;28;20430;-68
2022/08/14 02:55:58;;;;;;;9.02;4.72;;;22.70;91.20;;;;;;5092741;28;20465;-70
2022/08/14 02:58:24;;;;;;;6.28;4.03;;;22.50;92.00;;;;;;5094435;28;20075;-70
2022/08/14 03:00:50;;;;;;;5.82;3.97;;;22.70;91.80;;;;;;5093232;28;20510;-72
2022/08/14 03:03:16;;;;;;;8.68;4.78;;;22.60;91.80;;;;;;5094800;28;20016;-71
2022/08/14 03:05:43;;;;;;;11.50;5.03;;;22.60;92.00;;;;;;5094013;28;20038;-67
2022/08/14 03:08:11;;;;;;;9.55;4.95;;;22.70;91.70;;;;;;5093613;28;20028;-71
2022/08/14 03:10:37;;;;;;;11.45;5.05;;;22.70;91.90;;;;;;5092488;28;20020;-68
2022/08/14 03:13:05;;;;;;;7.00;4.22;;;22.50;92.30;;;;;;5094295;28;20481;-71
2022/08/14 03:15:54;;;;;;;11.88;4.55;;;22.30;93.20;;;;;;5094151;28;20024;-71
2022/08/14 03:18:20;;;;;;;7.75;4.57;;;22.50;93.20;;;;;;5093307;28;20071;-68
2022/08/14 03:20:46;;;;;;;7.90;4.38;;;22.60;92.50;;;;;;5094024;28;20110;-70
2022/08/14 03:23:13;;;;;;;8.55;4.90;;;22.30;93.60;;;;;;5093735;28;20440;-71
2022/08/14 03:25:39;;;;;;;7.35;5.15;;;22.20;94.10;;;;;;5093765;28;20024;-69
2022/08/14 03:28:06;;;;;;;10.52;5.28;;;21.90;94.20;;;;;;5091933;28;20043;-67
2022/08/14 03:30:33;;;;;;;8.00;4.85;;;22.00;93.90;;;;;;5097840;28;20412;-68
2022/08/14 03:32:59;;;;;;;5.85;4.82;;;22.10;93.90;;;;;;5093765;28;20035;-68
2022/08/14 03:35:25;;;;;;;10.38;5.07;;;22.10;93.50;;;;;;5093175;28;20027;-68
2022/08/14 03:37:51;;;;;;;12.80;5.10;;;22.10;94.40;;;;;;5093248;28;20081;-69
2022/08/14 03:40:19;;;;;;;12.40;5.35;;;22.30;93.80;;;;;;5093528;28;20074;-71
2022/08/14 03:42:45;;;;;;;12.95;5.30;;;22.30;93.80;;;;;;5093920;28;20077;-68
2022/08/14 03:45:12;;;;;;;12.77;5.28;;;22.20;93.80;;;;;;5092326;28;20040;-70
2022/08/14 03:47:39;;;;;;;8.48;4.72;;;22.00;93.80;;;;;;5093690;28;20022;-68
2022/08/14 03:50:08;;;;;;;11.13;5.13;;;21.80;94.90;;;;;;5093570;28;20064;-69
2022/08/14 03:52:34;;;;;;;7.65;4.65;;;21.70;95.10;;;;;;5093618;28;20074;-70
2022/08/14 03:55:02;;;;;;;9.35;4.38;;;21.60;95.60;;;;;;5092710;28;20044;-67
2022/08/14 03:57:31;;;;;;;6.18;4.57;;;21.50;96.10;;;;;;5091043;28;20036;-67
2022/08/14 04:00:02;;;;;;;5.47;4.47;;;21.70;96.10;;;;;;5093469;28;20145;-68
2022/08/14 04:02:39;;;;;;;10.07;4.57;;;21.60;95.80;;;;;;5092158;28;20036;-69
2022/08/14 04:05:09;;;;;;;12.93;4.80;;;21.60;96.00;;;;;;5093514;28;20107;-68
2022/08/14 04:07:37;;;;;;;10.02;4.63;;;21.60;95.50;;;;;;5092811;28;20056;-70
2022/08/14 04:10:05;;;;;;;8.20;4.65;;;21.70;95.50;;;;;;5093599;28;20020;-70
2022/08/14 04:12:30;;;;;;;10.13;4.53;;;21.20;96.90;;;;;;5092329;28;20031;-69
2022/08/14 04:14:57;;;;;;;9.27;5.30;;;21.30;97.30;;;;;;5092967;28;20020;-68
2022/08/14 04:17:23;;;;;;;9.52;5.47;;;21.60;96.60;;;;;;5093358;28;20129;-71
2022/08/14 04:19:49;;;;;;;16.25;6.15;;;21.80;96.00;;;;;;5093095;28;20122;-67
2022/08/14 04:22:15;;;;;;;10.45;5.53;;;21.70;95.80;;;;;;5091416;28;20024;-68
2022/08/14 04:24:40;;;;;;;10.48;5.63;;;21.80;95.70;;;;;;5092801;28;20020;-70
2022/08/14 04:27:08;;;;;;;7.50;4.97;;;22.00;95.60;;;;;;5092257;28;20077;-67
2022/08/14 04:29:38;;;;;;;10.05;5.90;;;21.80;96.10;;;;;;5092929;28;20072;-67
2022/08/14 04:32:07;;;;;;;7.18;5.72;;;21.90;95.70;;;;;;5089558;28;20032;-68
2022/08/14 04:34:33;;;;;;;8.38;5.38;;;21.90;95.70;;;;;;5092638;28;20081;-70
2022/08/14 04:45:14;;;;;;;10.27;5.30;;;21.70;96.40;;;;;;5095003;28;20035;-70
2022/08/14 04:50:26;;;;;;;15.73;6.07;;;21.40;97.50;;;;;;5096323;28;20220;-69
2022/08/14 04:52:52;;;;;;;13.70;5.90;;;21.50;97.70;;;;;;5095422;28;20118;-68
2022/08/14 04:55:18;;;;;;;7.32;5.45;;;21.60;97.20;;;;;;5096296;28;20027;-68
2022/08/14 04:57:43;;;;;;;22.75;6.30;;;21.60;97.40;;;;;;5094755;28;20047;-67
2022/08/14 05:00:10;;;;;;;10.48;5.82;;;21.60;97.60;;;;;;5096960;28;20044;-68
2022/08/14 05:02:35;;;;;;;16.42;6.10;;;21.40;98.20;;;;;;5094558;28;20023;-70
2022/08/14 05:05:01;;;;;;;18.02;5.97;;;21.60;97.90;;;;;;5096959;28;20107;-70
2022/08/14 05:07:27;;;;;;;14.48;5.93;;;21.60;97.60;;;;;;5094354;28;20535;-67
2022/08/14 05:09:52;;;;;;;13.40;6.00;;;21.70;97.90;;;;;;5096422;28;20032;-68
2022/08/14 05:12:18;;;;;;;9.50;5.30;;;21.60;97.80;;;;;;5096422;28;20056;-68
2022/08/14 05:14:45;;;;;;;6.45;5.80;;;21.60;98.00;;;;;;5095508;28;20024;-68
2022/08/14 05:17:11;;;;;;;10.68;5.72;;;21.60;98.20;;;;;;5091702;28;20036;-68
2022/08/14 05:19:37;;;;;;;11.48;6.28;;;21.70;98.40;;;;;;5096164;28;20028;-70
2022/08/14 05:22:03;;;;;;;10.68;6.00;;;21.60;98.40;;;;;;5095722;28;20069;-68
2022/08/14 05:24:29;;;;;;;14.00;5.57;;;21.50;98.70;;;;;;5095518;28;20020;-72
2022/08/14 05:26:55;;;;;;;10.13;5.47;;;21.70;98.80;;;;;;5095244;28;20021;-70
2022/08/14 05:29:20;;;;;;;12.43;5.70;;;22.00;98.00;;;;;;5096177;28;20036;-71
2022/08/14 05:31:46;;;;;;;11.50;6.35;;;22.00;97.40;;;;;;5095274;28;20028;-68
2022/08/14 05:34:12;;;;;;;11.07;4.30;;;22.10;97.20;;;;;;5095889;28;20020;-71
2022/08/14 05:36:37;;;;;;;13.18;5.03;;;22.00;97.50;;;;;;5095150;28;20059;-71
2022/08/14 05:39:05;;;;;;;10.80;5.78;;;21.80;97.90;;;;;;5095438;28;20080;-68
2022/08/14 05:41:31;;;;;;;9.90;5.22;;;22.20;97.30;;;;;;5095141;28;20039;-67
2022/08/14 05:43:57;;;;;;;8.88;4.90;;;22.40;96.50;;;;;;5095210;28;20020;-70
2022/08/14 05:46:23;;;;;;;10.18;5.15;;;22.50;96.50;;;;;;5095956;28;20149;-68
2022/08/14 05:48:52;;;;;;;9.13;4.97;;;22.60;97.10;;;;;;5095633;28;20448;-68
2022/08/14 05:51:18;;;;;;;8.18;4.93;;;22.70;97.20;;;;;;5094942;28;20491;-70
2022/08/14 05:53:44;;;;;;;13.07;5.35;;;22.70;96.60;;;;;;5093855;28;20516;-67
2022/08/14 05:56:10;;;;;;;10.82;4.80;;;22.70;96.20;;;;;;5094782;28;20028;-69
2022/08/14 05:58:36;;;;;;;11.10;4.97;;;22.70;96.20;;;;;;5093826;28;20128;-68
2022/08/14 06:01:02;;;;;;;13.32;5.00;;;22.70;95.90;;;;;;5095493;28;20028;-69
2022/08/14 06:03:28;;;;;;;10.65;4.30;;;22.80;94.60;;;;;;5094613;28;20020;-69
2022/08/14 06:05:55;;;;;;;8.93;4.30;;;22.70;94.60;;;;;;5094773;28;20031;-72
2022/08/14 06:08:27;;;;;;;6.60;3.40;;;22.80;94.30;;;;;;5086768;28;20065;-74
2022/08/14 06:10:55;;;;;;;7.18;3.58;;;22.80;96.10;;;;;;5081220;28;20499;-74
2022/08/14 06:13:22;;;;;;;7.22;3.60;;;23.10;94.20;;;;;;5086216;28;20435;-75
2022/08/14 06:15:49;;;;;;;7.55;3.50;;;23.30;93.90;;;;;;5095988;28;20073;-74
2022/08/14 06:18:16;;;;;;;12.20;3.22;;;23.50;92.60;;;;;;5089059;28;20500;-74
2022/08/14 06:20:42;;;;;;;8.27;3.40;;;23.60;92.50;;;;;;5086194;28;20062;-74
2022/08/14 06:23:08;;;;;;;14.27;4.25;;;23.70;91.70;;;;;;5091818;28;20034;-74
2022/08/14 06:25:34;;;;;;;12.60;3.60;;;23.70;91.80;;;;;;5080994;28;20016;-75
2022/08/14 06:28:00;;;;;;;12.13;4.10;;;24.10;90.50;;;;;;5094708;28;20036;-73
2022/08/14 06:30:28;;;;;;;8.23;3.03;;;23.80;91.10;;;;;;5100945;28;20052;-73
2022/08/14 06:32:54;;;;;;;9.98;3.40;;;24.10;90.40;;;;;;5089761;28;20024;-74
2022/08/14 06:35:21;;;;;;;5.75;3.28;;;24.40;88.90;;;;;;5079699;28;20024;-72
2022/08/14 06:37:52;;;;;;;6.80;3.10;;;24.50;88.80;;;;;;5084020;28;20468;-72
2022/08/14 06:40:26;;;;;;;5.10;3.17;;;24.60;88.50;;;;;;5085339;28;20137;-74
2022/08/14 06:42:53;;;;;;;4.95;3.00;;;24.50;87.10;;;;;;5076854;28;20032;-73
2022/08/14 06:45:19;;;;;;;8.98;3.05;;;24.60;86.70;;;;;;5080297;28;20038;-73
2022/08/14 06:47:46;;;;;;;6.78;3.60;;;24.50;88.40;;;;;;5074178;28;20028;-72
2022/08/14 06:50:18;;;;;;;8.82;2.80;;;24.90;87.30;;;;;;5075879;28;20700;-72
2022/08/14 06:52:44;;;;;;;7.95;2.88;;;25.00;82.10;;;;;;5085644;28;20035;-73
2022/08/14 06:55:12;;;;;;;5.07;2.60;;;24.50;84.70;;;;;;5076675;28;20016;-72
2022/08/14 06:57:41;;;;;;;8.15;3.33;;;24.50;84.30;;;;;;5072805;28;20154;-74
2022/08/14 07:00:10;;;;;;;3.00;2.22;;;24.50;83.90;;;;;;5072238;28;20040;-72
2022/08/14 07:08:13;;;;;;;13.45;3.10;;;24.70;83.10;;;;;;5081821;28;20029;-74
2022/08/14 07:10:40;;;;;;;;;;;24.80;81.80;;;;;;5074086;28;20093;-70
2022/08/14 07:13:06;;;;;;;6.78;2.72;;;24.80;82.10;;;;;;5077149;28;20287;-71
2022/08/14 07:15:32;;;;;;;13.75;2.90;;;24.80;80.70;;;;;;5091150;28;20026;-77
2022/08/14 07:17:58;;;;;;;3.10;2.58;;;25.10;80.70;;;;;;5091510;28;20021;-75
2022/08/14 07:20:26;;;;;;;7.72;2.60;;;25.20;79.20;;;;;;5094033;28;20081;-76
2022/08/14 07:22:57;;;;;;;6.32;2.50;;;25.30;78.70;;;;;;5086529;28;20020;-76
2022/08/14 07:25:23;;;;;;;3.25;2.55;;;25.60;78.50;;;;;;5088435;28;20028;-77
2022/08/14 07:27:49;;;;;;;13.45;2.40;;;25.70;77.40;;;;;;5064682;28;20045;-75
2022/08/14 07:30:15;;;;;;;5.85;2.50;;;25.80;78.10;;;;;;5087553;28;20157;-75
2022/08/14 07:32:41;;;;;;;8.20;2.30;;;25.80;77.70;;;;;;5090133;28;20034;-75
2022/08/14 07:35:07;;;;;;;7.93;2.50;;;25.70;77.00;;;;;;5087907;28;20028;-75
2022/08/14 07:37:33;;;;;;;5.50;2.67;;;26.00;77.00;;;;;;5091016;28;20490;-76
2022/08/14 07:40:00;;;;;;;7.40;2.60;;;26.40;75.40;;;;;;5089309;28;20040;-76
2022/08/14 07:42:27;;;;;;;8.10;2.53;;;26.60;76.10;;;;;;5090168;28;20031;-76
2022/08/14 07:44:53;;;;;;;13.07;2.80;;;26.70;73.30;;;;;;5090994;28;20016;-74
2022/08/14 07:47:19;;;;;;;12.65;2.70;;;26.70;73.20;;;;;;5086472;28;20024;-75
2022/08/14 07:50:18;;;;;;;6.03;3.00;;;26.90;72.60;;;;;;5091153;28;20039;-75
2022/08/14 07:52:45;;;;;;;5.07;2.50;;;27.20;73.00;;;;;;5077231;28;20040;-77
2022/08/14 07:55:12;;;;;;;7.10;3.20;;;27.30;72.50;;;;;;5090317;28;20027;-76
2022/08/14 07:57:39;;;;;;;11.80;3.00;;;27.30;73.30;;;;;;5088864;28;20531;-74
2022/08/14 08:00:10;;;;;;;7.35;2.75;;;27.40;72.90;;;;;;5090210;28;20075;-76
2022/08/14 08:02:43;;;;;;;7.88;3.13;;;27.70;71.60;;;;;;5088213;28;20031;-75
2022/08/14 08:05:10;;;;;;;4.68;2.92;;;27.90;69.70;;;;;;5090737;28;20036;-75
2022/08/14 08:07:37;;;;;;;5.25;2.83;;;27.80;72.70;;;;;;5087826;28;20063;-76
2022/08/14 08:10:30;;;;;;;5.40;3.20;;;28.10;71.40;;;;;;5090900;28;20145;-77
2022/08/14 08:12:57;;;;;;;4.07;3.10;;;28.20;70.20;;;;;;5091861;28;20040;-76
2022/08/14 08:15:25;;;;;;;9.90;3.13;;;28.50;69.60;;;;;;5091412;28;20031;-76
2022/08/14 08:17:51;;;;;;;14.13;3.95;;;29.00;69.70;;;;;;5092885;28;20027;-75
2022/08/14 08:20:20;;;;;;;13.35;3.15;;;28.90;69.20;;;;;;5092553;28;20043;-76
2022/08/14 08:22:49;;;;;;;9.10;3.42;;;28.90;68.30;;;;;;5092933;28;20027;-77
2022/08/14 08:25:17;;;;;;;4.45;3.08;;;29.00;69.30;;;;;;5092941;28;20036;-76
2022/08/14 08:28:00;;;;;;;3.45;3.15;;;29.10;70.20;;;;;;5092663;28;20056;-76
2022/08/14 08:30:30;;;;;;;11.13;3.65;;;29.30;68.30;;;;;;5079502;28;20051;-77
2022/08/14 08:32:58;;;;;;;5.75;4.07;;;29.50;68.70;;;;;;5092581;28;20028;-75
2022/08/14 08:35:26;;;;;;;17.23;3.40;;;29.40;66.50;;;;;;5091907;28;20666;-76
2022/08/14 08:37:59;;;;;;;6.78;3.83;;;29.50;66.70;;;;;;5091934;28;20446;-74
2022/08/14 08:40:34;;;;;;;9.35;4.30;;;29.60;66.80;;;;;;5092039;28;20481;-76
2022/08/14 08:43:07;;;;;;;11.18;4.32;;;29.60;67.10;;;;;;5092261;28;20032;-75
2022/08/14 08:45:35;;;;;;;6.35;4.20;;;29.90;66.20;;;;;;5092710;28;20462;-75
2022/08/14 08:48:02;;;;;;;7.30;4.18;;;30.10;66.50;;;;;;5093054;28;20349;-76
2022/08/14 08:50:38;;;;;;;8.35;3.97;;;30.00;65.20;;;;;;5092528;28;20032;-75
2022/08/14 08:53:08;;;;;;;5.20;4.10;;;30.10;64.60;;;;;;5092877;28;20036;-75
2022/08/14 08:55:37;;;;;;;9.27;4.13;;;30.00;64.60;;;;;;5092615;28;20035;-74
2022/08/14 08:58:11;;;;;;;6.15;3.65;;;30.20;64.80;;;;;;5092692;28;20022;-75
2022/08/14 09:00:39;;;;;;;5.80;3.47;;;30.10;64.50;;;;;;5092285;28;20442;-76
2022/08/14 09:03:08;;;;;;;6.57;4.03;;;30.10;64.10;;;;;;5092569;28;20055;-75
2022/08/14 09:05:36;;;;;;;7.38;3.83;;;30.00;63.40;;;;;;5092556;28;20032;-76
2022/08/14 09:08:09;;;;;;;12.50;4.22;;;30.20;64.10;;;;;;5092753;28;20164;-75
2022/08/14 09:10:36;;;;;;;7.50;3.75;;;30.40;64.10;;;;;;5092396;28;20036;-74
2022/08/14 09:13:03;;;;;;;8.15;3.58;;;30.60;62.80;;;;;;5091025;28;20032;-77
2022/08/14 09:15:29;;;;;;;11.93;3.90;;;30.60;63.10;;;;;;5092562;28;20107;-76
2022/08/14 09:17:56;;;;;;;13.27;4.05;;;30.90;63.20;;;;;;5092374;28;20052;-77
2022/08/14 09:20:22;;;;;;;13.55;3.70;;;30.70;62.80;;;;;;5092917;28;20512;-76
2022/08/14 09:22:49;;;;;;;5.40;4.03;;;31.00;63.20;;;;;;5092831;28;20119;-77
2022/08/14 09:25:17;;;;;;;6.05;3.60;;;30.90;63.20;;;;;;5093146;28;20478;-75
2022/08/14 09:27:43;;;;;;;7.32;3.90;;;30.80;63.90;;;;;;5093061;28;20024;-75
2022/08/14 09:30:09;;;;;;;6.18;3.10;;;31.00;63.00;;;;;;5092456;28;20456;-74
2022/08/14 09:32:51;;;;;;;6.15;2.92;;;30.70;64.30;;;;;;5095086;28;20121;-76
2022/08/14 09:35:29;;;;;;;5.13;3.35;;;31.00;63.10;;;;;;5094791;28;20055;-75
2022/08/14 09:38:09;;;;;;;4.88;3.25;;;31.30;63.70;;;;;;5096229;28;20086;-76
2022/08/14 09:40:57;;;;;;;3.78;2.85;;;31.70;62.90;;;;;;5096100;28;20047;-75
2022/08/14 09:43:31;;;;;;;6.20;3.78;;;31.90;61.70;;;;;;5095382;28;20044;-75
2022/08/14 09:45:57;;;;;;;4.38;3.25;;;32.10;61.80;;;;;;5096127;28;20028;-74
2022/08/14 09:48:25;;;;;;;6.15;3.13;;;32.50;61.10;;;;;;5095576;28;20036;-75
2022/08/14 09:50:54;;;;;;;7.38;3.30;;;32.60;60.70;;;;;;5083601;28;20031;-76
2022/08/14 09:53:42;;;;;;;7.65;2.90;;;33.10;62.20;;;;;;5085766;28;20532;-73
2022/08/14 09:56:10;;;;;;;7.65;3.20;;;32.70;61.00;;;;;;5079333;28;20016;-71
2022/08/14 09:58:43;;;;;;;6.43;2.83;;;32.80;60.70;;;;;;5077078;28;20028;-73
2022/08/14 10:01:12;;;;;;;8.85;2.78;;;33.10;61.00;;;;;;5089240;28;20048;-75
2022/08/14 10:03:55;;;;;;;4.25;2.75;;;32.60;59.60;;;;;;5075723;28;20055;-77
2022/08/14 10:06:28;;;;;;;4.78;2.80;;;32.30;60.80;;;;;;5083579;28;20074;-75
2022/08/14 10:09:01;;;;;;;5.65;2.90;;;32.60;59.80;;;;;;5083539;28;20059;-77
2022/08/14 10:11:34;;;;;;;3.40;2.20;;;32.80;60.60;;;;;;5084402;28;20039;-74
2022/08/14 10:14:20;;;;;;;4.90;2.30;;;32.80;59.00;;;;;;5077378;28;20047;-76
2022/08/14 10:16:53;;;;;;;4.57;2.10;;;32.50;59.70;;;;;;5075734;28;20467;-75
2022/08/14 10:19:21;;;;;;;5.53;2.13;;;32.00;58.70;;;;;;5076438;28;20033;-76
2022/08/14 10:21:56;;;;;;;5.78;2.22;;;31.70;59.40;;;;;;5075399;28;20029;-76
2022/08/14 10:24:28;;;;;;;3.40;2.28;;;31.90;60.10;;;;;;5080732;28;20024;-78
2022/08/14 10:26:59;;;;;;;11.02;2.58;;;32.60;60.50;;;;;;5074193;28;20029;-75
2022/08/14 10:29:36;;;;;;;6.15;2.25;;;32.60;59.00;;;;;;5076743;28;20127;-75
2022/08/14 10:32:03;;;;;;;3.40;2.15;;;33.10;59.70;;;;;;5077897;28;20028;-74
2022/08/14 10:34:38;;;;;;;5.15;2.08;;;33.30;58.80;;;;;;5074391;28;20031;-75
2022/08/14 10:37:06;;;;;;;6.20;2.05;;;34.10;58.30;;;;;;5075173;28;20020;-75
2022/08/14 10:39:34;;;;;;;7.88;2.17;;;34.40;57.90;;;;;;5092449;28;20064;-75
2022/08/14 10:42:05;;;;;;;2.15;1.95;;;34.50;58.10;;;;;;5084840;28;20028;-75
2022/08/14 10:44:44;;;;;;;3.28;1.83;;;34.70;57.40;;;;;;5096819;28;20036;-75
2022/08/14 10:47:11;;;;;;;13.73;2.65;;;34.00;57.10;;;;;;5089777;28;20103;-75
2022/08/14 10:49:48;;;;;;;7.22;2.17;;;34.10;55.90;;;;;;5087534;28;20020;-75
2022/08/14 10:52:24;;;;;;;5.30;1.65;;;34.00;56.00;;;;;;5096029;28;20035;-75
2022/08/14 10:54:51;;;;;;;2.88;1.90;;;33.50;55.20;;;;;;5091998;28;20044;-75
2022/08/14 10:57:21;;;;;;;2.45;1.85;;;33.50;56.30;;;;;;5090236;28;20040;-75
2022/08/14 10:59:58;;;;;;;1.73;1.33;;;33.10;56.60;;;;;;5085387;28;20036;-75
2022/08/14 11:02:29;;;;;;;6.38;1.75;;;34.00;56.90;;;;;;5095992;28;20067;-76
2022/08/14 11:04:57;;;;;;;2.23;1.70;;;34.00;55.30;;;;;;5079258;28;20044;-75
2022/08/14 11:07:24;;;;;;;2.65;1.60;;;33.80;55.70;;;;;;5087234;28;20312;-76
2022/08/14 11:10:02;;;;;;;5.18;1.75;;;34.30;56.20;;;;;;5080674;28;20024;-75
2022/08/14 11:12:40;;;;;;;4.20;1.92;;;35.00;55.80;;;;;;5087679;28;20019;-75
2022/08/14 11:15:06;;;;;;;9.43;1.65;;;34.60;55.10;;;;;;5078667;28;20093;-75
2022/08/14 11:17:35;;;;;;;2.75;1.55;;;34.60;54.90;;;;;;5076844;28;20035;-72
2022/08/14 11:20:04;;;;;;;2.10;1.75;;;34.50;54.90;;;;;;5075787;28;20296;-72
2022/08/14 11:22:32;;;;;;;1.60;1.50;;;34.10;55.30;;;;;;5077867;28;20066;-73
2022/08/14 11:25:05;;;;;;;3.58;1.52;;;34.30;55.10;;;;;;5075292;28;20073;-72
2022/08/14 11:27:32;;;;;;;9.93;1.73;;;34.20;55.00;;;;;;5074038;28;20520;-72
2022/08/14 11:30:03;;;;;;;5.07;1.73;;;35.00;54.20;;;;;;5075086;28;20116;-70
2022/08/14 11:32:32;;;;;;;4.05;1.58;;;35.60;55.10;;;;;;5083349;28;20034;-71
2022/08/14 11:34:59;;;;;;;23.75;2.95;;;35.90;53.80;;;;;;5097387;28;20028;-71
2022/08/14 11:37:24;;;;;;;6.63;1.67;;;36.30;53.20;;;;;;5092490;28;20028;-72
2022/08/14 11:39:50;;;;;;;3.67;1.60;;;35.50;53.60;;;;;;5090588;28;20121;-71
2022/08/14 11:42:24;;;;;;;3.30;1.50;;;35.50;53.40;;;;;;5089281;28;20059;-71
2022/08/14 11:44:58;;;;;;;8.45;1.75;;;35.40;53.50;;;;;;5103504;28;20135;-72
2022/08/14 11:47:25;;;;;;;5.82;1.48;;;35.70;53.30;;;;;;5082382;28;20054;-72
2022/08/14 11:49:52;;;;;;;4.13;1.45;;;36.20;53.70;;;;;;5078462;28;20035;-71
2022/08/14 11:52:18;;;;;;;6.25;1.65;;;36.70;53.60;;;;;;5076727;28;20055;-70
2022/08/14 11:54:45;;;;;;;4.03;1.50;;;36.10;53.00;;;;;;5083817;28;20020;-70
2022/08/14 11:57:16;;;;;;;5.78;1.80;;;34.90;53.30;;;;;;5078556;28;20050;-71
2022/08/14 11:59:43;;;;;;;2.15;1.42;;;35.50;54.60;;;;;;5074444;28;20044;-71
2022/08/14 12:02:11;;;;;;;4.13;1.40;;;35.90;53.40;;;;;;5077193;28;20465;-71
2022/08/14 12:04:48;;;;;;;3.78;1.50;;;36.00;53.60;;;;;;5074977;28;20115;-72
2022/08/14 12:07:13;;;;;;;10.50;1.98;;;35.20;53.50;;;;;;5075146;28;20031;-70
2022/08/14 12:09:39;;;;;;;4.35;1.58;;;34.70;53.90;;;;;;5078764;28;20024;-70
2022/08/14 12:12:25;;;;;;;8.60;1.48;;;35.40;54.10;;;;;;5077940;28;20099;-72
2022/08/14 12:14:55;;;;;;;2.03;1.25;;;35.50;53.10;;;;;;5080223;28;20033;-72
2022/08/14 12:17:32;;;;;;;9.82;1.25;;;35.50;53.30;;;;;;5093862;28;20490;-72
2022/08/14 12:20:05;;;;;;;7.03;1.55;;;36.00;52.60;;;;;;5079572;28;20055;-71
2022/08/14 12:22:42;;;;;;;5.43;1.50;;;36.20;53.30;;;;;;5083429;28;20499;-76
2022/08/14 12:25:11;;;;;;;1.65;1.05;;;36.40;51.60;;;;;;5090312;28;20024;-74
2022/08/14 12:27:54;;;;;;;1.23;1.13;;;36.00;51.90;;;;;;5091701;28;20043;-75
2022/08/14 12:30:41;;;;;;;6.63;1.77;;;36.50;52.10;;;;;;5074339;28;20043;-76
2022/08/14 12:33:24;;;;;;;1.30;1.20;;;35.60;51.30;;;;;;5071265;28;20079;-76
2022/08/14 12:35:50;;;;;;;6.95;1.25;;;35.70;51.60;;;;;;5072287;28;20024;-74
2022/08/14 12:38:16;;;;;;;3.90;1.38;;;36.00;52.20;;;;;;5076700;28;20035;-77
2022/08/14 12:40:51;;;;;;;17.30;1.70;;;36.50;52.00;;;;;;5076506;28;20024;-76
2022/08/14 12:43:18;;;;;;;5.65;1.23;;;36.20;51.40;;;;;;5075772;28;20032;-77
2022/08/14 12:45:49;;;;;;;5.20;1.00;;;36.00;51.80;;;;;;5072924;28;20093;-76
2022/08/14 12:48:17;;;;;;;3.08;1.23;;;36.40;51.40;;;;;;5074411;28;20020;-76
2022/08/14 12:50:44;;;;;;;3.90;1.30;;;36.70;51.20;;;;;;5072533;28;20477;-76
2022/08/14 12:53:11;;;;;;;1.13;1.02;;;37.20;51.50;;;;;;5084215;28;20080;-76
2022/08/14 12:55:39;;;;;;;2.10;1.30;;;37.00;50.80;;;;;;5083189;28;20017;-77
2022/08/14 12:58:07;;;;;;;2.40;1.15;;;36.20;50.80;;;;;;5087172;28;20491;-77
2022/08/14 13:00:36;;;;;;;3.92;1.33;;;35.20;52.20;;;;;;5090454;28;20047;-76
2022/08/14 13:03:04;;;;;;;4.25;1.10;;;34.80;52.00;;;;;;5085064;28;20450;-75
2022/08/14 13:05:36;;;;;;;6.70;1.30;;;34.90;52.10;;;;;;5099507;28;20035;-76
2022/08/14 13:08:05;;;;;;;6.13;1.55;;;35.10;52.00;;;;;;5103365;28;20487;-73
2022/08/14 13:10:33;;;;;;;1.40;1.30;;;35.30;51.90;;;;;;5081518;28;20063;-73
2022/08/14 13:13:01;;;;;;;2.03;1.38;;;36.20;52.30;;;;;;5079510;28;20024;-73
2022/08/14 13:15:27;;;;;;;5.40;1.33;;;37.40;52.00;;;;;;5086363;28;20020;-73